Time;durP1;ratioP1;P1;durP2;ratioP2;P2;SDS_P1;SDS_P2;PMS_P1;PMS_P2;Temp;Humidity;BMP_temperature;BMP_pressure;BME280_temperature;BME280_humidity;BME280_pressure;Samples;Min_cycle;Max_cycle;Signal;HPM_P1;HPM_P2
2022/11/01 00:02:01;;;;;;;9.48;3.77;;;;;;;3.75;55.89;101149.08;1762882;79;21127;-63
2022/11/01 00:04:27;;;;;;;9.98;3.90;;;;;;;3.74;55.84;101149.55;1728378;81;21643;-63
2022/11/01 00:06:54;;;;;;;12.53;7.15;;;;;;;3.73;55.98;101146.53;1783725;79;21840;-63
2022/11/01 00:09:21;;;;;;;7.47;3.15;;;;;;;3.73;56.17;101138.73;1782066;79;21031;-64
2022/11/01 00:11:49;;;;;;;8.63;2.80;;;;;;;3.72;56.30;101140.95;1785643;79;21027;-63
2022/11/01 00:14:17;;;;;;;12.43;4.37;;;;;;;3.72;56.39;101133.15;1770642;79;21040;-63
2022/11/01 00:16:43;;;;;;;13.35;5.22;;;;;;;3.70;56.40;101136.27;1732486;81;21055;-63
2022/11/01 00:19:11;;;;;;;13.18;6.75;;;;;;;3.68;56.55;101136.76;1762727;79;21220;-63
2022/11/01 00:21:38;;;;;;;13.35;6.85;;;;;;;3.67;56.65;101135.09;1764849;79;21041;-64
2022/11/01 00:24:05;;;;;;;11.30;3.37;;;;;;;3.66;56.78;101134.68;1760567;80;21063;-64
2022/11/01 00:26:32;;;;;;;13.72;7.78;;;;;;;3.65;56.81;101133.84;1754130;79;21008;-63
2022/11/01 00:28:59;;;;;;;10.18;4.15;;;;;;;3.62;56.97;101133.95;1770946;80;21043;-63
2022/11/01 00:31:25;;;;;;;11.95;5.35;;;;;;;3.61;57.11;101135.31;1761722;79;22514;-63
2022/11/01 00:33:52;;;;;;;11.78;7.20;;;;;;;3.58;57.22;101131.52;1767807;80;22293;-63
2022/11/01 00:36:18;;;;;;;9.40;3.55;;;;;;;3.54;57.45;101130.34;1766210;79;21039;-63
2022/11/01 00:38:50;;;;;;;9.38;3.50;;;;;;;3.56;57.68;101138.09;1761212;79;21129;-63
2022/11/01 00:41:19;;;;;;;11.75;3.60;;;;;;;3.54;57.74;101134.23;1765172;79;21894;-64
2022/11/01 00:43:47;;;;;;;15.20;7.90;;;;;;;3.52;58.09;101133.92;1770852;80;21223;-63
2022/11/01 00:46:13;;;;;;;12.13;7.22;;;;;;;3.48;58.28;101133.62;1773973;79;21106;-62
2022/11/01 00:48:40;;;;;;;8.75;3.20;;;;;;;3.47;58.34;101139.76;1766662;80;21009;-62
2022/11/01 00:51:07;;;;;;;12.93;7.85;;;;;;;3.43;58.25;101139.46;1770653;79;21133;-62
2022/11/01 00:53:34;;;;;;;7.67;3.27;;;;;;;3.40;58.41;101142.20;1766085;79;21084;-63
2022/11/01 00:56:05;;;;;;;13.08;7.35;;;;;;;3.37;58.57;101143.62;1768823;79;21247;-62
2022/11/01 00:58:34;;;;;;;9.05;3.50;;;;;;;3.34;58.52;101144.11;1763996;78;21550;-63
2022/11/01 01:01:00;;;;;;;11.05;7.22;;;;;;;3.32;58.55;101147.69;1773015;79;21072;-63
2022/11/01 01:03:27;;;;;;;7.95;2.80;;;;;;;3.28;58.74;101148.72;1763473;80;21022;-63
2022/11/01 01:05:54;;;;;;;17.25;8.15;;;;;;;3.25;58.91;101150.12;1765325;80;21496;-62
2022/11/01 01:08:22;;;;;;;8.33;2.90;;;;;;;3.21;59.23;101147.23;1764757;79;21175;-63
2022/11/01 01:10:48;;;;;;;13.20;7.90;;;;;;;3.21;59.24;101145.92;1768218;79;21009;-63
2022/11/01 01:13:16;;;;;;;11.30;3.80;;;;;;;3.19;59.34;101146.44;1770617;79;21054;-63
2022/11/01 01:15:44;;;;;;;7.47;3.75;;;;;;;3.16;59.55;101146.96;1771710;80;21435;-62
2022/11/01 01:18:12;;;;;;;10.45;3.55;;;;;;;3.14;59.66;101150.08;1773663;79;21127;-62
2022/11/01 01:20:38;;;;;;;8.23;3.33;;;;;;;3.12;59.80;101147.12;1770804;79;21259;-62
2022/11/01 01:23:06;;;;;;;7.72;3.60;;;;;;;3.15;59.89;101147.02;1778942;79;21039;-62
2022/11/01 01:25:33;;;;;;;9.33;2.87;;;;;;;3.12;60.06;101147.95;1750435;82;21070;-63
2022/11/01 01:28:00;;;;;;;8.65;3.50;;;;;;;3.12;60.09;101141.46;1781109;79;21039;-62
2022/11/01 01:30:26;;;;;;;10.05;4.15;;;;;;;3.12;60.16;101145.36;1751353;80;21011;-63
2022/11/01 01:32:53;;;;;;;9.05;3.72;;;;;;;3.12;60.29;101144.06;1798666;79;21206;-62
2022/11/01 01:35:19;;;;;;;7.97;3.90;;;;;;;3.12;60.42;101141.46;1761678;78;21060;-63
2022/11/01 01:37:46;;;;;;;12.03;6.92;;;;;;;3.10;60.51;101139.38;1796873;79;21074;-63
2022/11/01 01:40:13;;;;;;;7.85;2.60;;;;;;;3.11;60.70;101134.58;1731045;80;21094;-63
2022/11/01 01:42:41;;;;;;;9.48;3.72;;;;;;;3.10;60.95;101138.53;1725329;80;21044;-63
2022/11/01 01:45:38;;;;;;;13.20;6.80;;;;;;;3.11;60.99;101137.61;1729318;80;21247;-63
2022/11/01 01:48:20;;;;;;;9.10;3.10;;;;;;;3.19;60.91;101132.98;1727789;80;21007;-64
2022/11/01 01:50:56;;;;;;;13.95;7.08;;;;;;;3.26;60.92;101129.70;1724049;82;21066;-63
2022/11/01 01:53:36;;;;;;;8.80;2.75;;;;;;;3.25;60.98;101135.36;1724114;80;21468;-64
2022/11/01 01:56:07;;;;;;;9.93;3.83;;;;;;;3.22;61.00;101140.67;1719611;82;21665;-63
2022/11/01 01:58:51;;;;;;;11.40;6.25;;;;;;;3.19;61.17;101139.95;1724095;82;21241;-62
2022/11/01 02:01:18;;;;;;;9.28;2.47;;;;;;;3.15;61.14;101138.75;1727677;80;21834;-63
2022/11/01 02:03:45;;;;;;;7.17;2.90;;;;;;;3.13;61.14;101137.97;1713659;82;21504;-63
2022/11/01 02:06:15;;;;;;;9.13;2.83;;;;;;;3.11;61.17;101135.02;1705931;80;21040;-63
2022/11/01 02:08:55;;;;;;;12.30;6.55;;;;;;;3.10;61.33;101135.47;1742067;80;21027;-62
2022/11/01 02:11:22;;;;;;;9.25;4.47;;;;;;;3.09;61.39;101136.39;1717369;80;21211;-63
2022/11/01 02:13:50;;;;;;;7.55;3.55;;;;;;;3.10;61.20;101138.08;1766753;80;21525;-64
2022/11/01 02:16:41;;;;;;;10.82;3.55;;;;;;;3.07;61.19;101143.38;1734187;82;20992;-64
2022/11/01 02:19:18;;;;;;;7.97;2.98;;;;;;;3.05;61.08;101150.40;1722530;80;21079;-63
2022/11/01 02:22:08;;;;;;;8.00;2.70;;;;;;;3.00;61.12;101152.78;1729200;80;21071;-64
2022/11/01 02:25:15;;;;;;;8.30;3.33;;;;;;;2.95;61.23;101151.17;1730263;82;21190;-64
2022/11/01 02:28:01;;;;;;;8.37;3.13;;;;;;;2.87;61.52;101154.95;1674539;83;21175;-63
2022/11/01 02:30:34;;;;;;;8.70;3.27;;;;;;;2.80;61.82;101160.83;1632610;85;22209;-63
2022/11/01 02:33:21;;;;;;;7.45;3.10;;;;;;;2.74;61.91;101167.53;1666027;85;21066;-64
2022/11/01 02:36:09;;;;;;;7.12;2.60;;;;;;;2.75;61.87;101160.98;1665874;85;21135;-64
2022/11/01 02:38:53;;;;;;;9.00;2.95;;;;;;;2.70;62.06;101165.48;1670093;85;21131;-64
2022/11/01 02:41:26;;;;;;;9.53;3.05;;;;;;;2.70;62.24;101173.28;1659456;85;22369;-64
2022/11/01 02:44:03;;;;;;;7.70;3.10;;;;;;;2.68;62.45;101167.77;1671163;85;21655;-64
2022/11/01 02:49:22;;;;;;;7.30;3.12;;;;;;;2.71;62.84;101164.60;1672501;85;21163;-64
2022/11/01 02:51:48;;;;;;;9.10;3.25;;;;;;;2.79;62.96;101172.11;1651676;85;21290;-64
2022/11/01 02:54:29;;;;;;;9.03;3.02;;;;;;;2.89;62.80;101172.21;1678538;85;21135;-64
2022/11/01 02:57:20;;;;;;;11.60;6.00;;;;;;;2.95;62.61;101169.84;1672516;85;21068;-64
2022/11/01 02:59:48;;;;;;;7.12;2.20;;;;;;;2.93;62.62;101174.25;1651531;84;21124;-63
2022/11/01 03:02:19;;;;;;;8.70;3.70;;;;;;;2.92;62.70;101173.38;1675003;85;21199;-63
2022/11/01 03:04:47;;;;;;;7.80;2.77;;;;;;;2.88;62.80;101169.20;1670766;85;21803;-63
2022/11/01 03:07:13;;;;;;;7.10;2.42;;;;;;;2.86;62.92;101174.05;1668839;85;21100;-63
2022/11/01 03:09:40;;;;;;;8.58;3.25;;;;;;;2.83;63.04;101179.37;1664516;83;21140;-63
2022/11/01 03:12:19;;;;;;;8.58;3.55;;;;;;;2.79;63.21;101182.08;1670462;85;21124;-63
2022/11/01 03:15:06;;;;;;;7.05;2.20;;;;;;;2.83;63.12;101180.22;1662579;84;21573;-63
2022/11/01 03:17:45;;;;;;;7.00;2.47;;;;;;;2.84;62.96;101179.33;1666396;85;22403;-63
2022/11/01 03:20:48;;;;;;;5.87;2.42;;;;;;;2.77;62.90;101182.59;1666821;85;21061;-63
2022/11/01 03:23:24;;;;;;;7.42;2.72;;;;;;;2.72;62.83;101187.53;1673164;85;21064;-62
2022/11/01 03:25:53;;;;;;;7.33;2.60;;;;;;;2.64;62.87;101178.72;1664587;85;21625;-63
2022/11/01 03:28:34;;;;;;;7.72;3.40;;;;;;;2.57;63.09;101175.91;1669616;85;21144;-63
2022/11/01 03:31:13;;;;;;;11.12;2.80;;;;;;;2.54;63.22;101173.41;1670020;85;21261;-63
2022/11/01 03:33:44;;;;;;;8.38;3.00;;;;;;;2.51;63.49;101179.57;1669283;85;21084;-63
2022/11/01 03:36:14;;;;;;;9.10;3.15;;;;;;;2.48;63.73;101177.53;1670158;85;21136;-63
2022/11/01 03:38:45;;;;;;;8.03;2.20;;;;;;;2.45;63.87;101171.13;1672193;85;21053;-63
2022/11/01 03:41:14;;;;;;;7.90;3.05;;;;;;;2.48;64.05;101174.94;1666296;85;21082;-64
2022/11/01 03:43:42;;;;;;;5.72;2.58;;;;;;;2.55;64.07;101171.22;1668361;85;21791;-63
2022/11/01 03:46:09;;;;;;;6.08;2.12;;;;;;;2.61;64.04;101169.72;1670359;85;21056;-63
2022/11/01 03:48:40;;;;;;;7.03;2.65;;;;;;;2.64;64.14;101170.05;1673365;85;21088;-63
2022/11/01 03:51:07;;;;;;;12.95;5.72;;;;;;;2.63;64.02;101174.87;1667749;85;21092;-63
2022/11/01 03:53:34;;;;;;;6.05;2.33;;;;;;;2.58;64.06;101172.42;1672655;85;21066;-63
2022/11/01 03:56:02;;;;;;;7.90;2.87;;;;;;;2.56;64.12;101172.92;1668585;85;21104;-63
2022/11/01 03:58:40;;;;;;;6.85;2.85;;;;;;;2.54;64.14;101168.20;1671301;85;21116;-63
2022/11/01 04:00:57;;;;;;;7.92;2.65;;;;;;;2.53;64.13;101169.13;1667691;85;21124;-63
2022/11/01 04:03:24;;;;;;;6.67;2.87;;;;;;;2.51;64.13;101170.94;1668876;85;21107;-63
2022/11/01 04:05:51;;;;;;;7.17;3.40;;;;;;;2.52;64.15;101176.52;1669411;85;21152;-63
2022/11/01 04:08:17;;;;;;;9.00;3.65;;;;;;;2.58;64.07;101181.52;1671621;85;21248;-63
2022/11/01 04:10:44;;;;;;;9.88;6.12;;;;;;;2.61;64.05;101182.71;1669057;85;21032;-63
2022/11/01 04:13:12;;;;;;;7.90;2.45;;;;;;;2.60;64.03;101186.20;1671473;85;21069;-63
2022/11/01 04:21:15;;;;;;;6.47;2.52;;;;;;;2.46;64.34;101180.64;1669784;85;21796;-63
2022/11/01 04:23:42;;;;;;;9.33;2.85;;;;;;;2.40;64.50;101183.84;1671988;85;21084;-63
2022/11/01 04:26:18;;;;;;;10.08;5.90;;;;;;;2.43;64.47;101190.66;1681065;85;21187;-63
2022/11/01 04:28:55;;;;;;;9.63;2.80;;;;;;;2.43;64.55;101188.06;1676410;85;21080;-63
2022/11/01 04:31:14;;;;;;;6.97;2.60;;;;;;;2.40;64.60;101189.03;1682281;85;21128;-64
2022/11/01 04:33:41;;;;;;;8.85;2.15;;;;;;;2.35;64.80;101188.30;1673526;85;21187;-63
2022/11/01 04:36:08;;;;;;;8.55;2.87;;;;;;;2.32;64.89;101193.63;1671368;85;21215;-63
2022/11/01 04:38:35;;;;;;;10.13;3.22;;;;;;;2.26;64.98;101196.41;1671242;85;21140;-63
2022/11/01 04:41:01;;;;;;;10.78;6.17;;;;;;;2.25;65.17;101201.20;1666068;85;21147;-63
2022/11/01 04:43:28;;;;;;;7.15;3.17;;;;;;;2.25;65.30;101205.55;1674041;83;21076;-63
2022/11/01 04:45:56;;;;;;;8.45;2.80;;;;;;;2.24;65.34;101202.11;1672957;85;21114;-63
2022/11/01 04:48:23;;;;;;;6.10;2.30;;;;;;;2.29;65.26;101205.41;1669239;85;21127;-63
2022/11/01 04:50:50;;;;;;;8.38;4.03;;;;;;;2.34;65.14;101207.87;1669844;85;21183;-63
2022/11/01 04:53:16;;;;;;;9.23;2.80;;;;;;;2.31;65.08;101206.20;1674563;85;21144;-63
2022/11/01 04:55:43;;;;;;;9.80;3.60;;;;;;;2.25;65.08;101206.84;1657470;85;21062;-63
2022/11/01 04:58:09;;;;;;;8.40;3.17;;;;;;;2.22;65.11;101209.11;1623505;87;21258;-64
2022/11/01 05:00:38;;;;;;;8.85;2.85;;;;;;;2.17;65.17;101206.66;1669184;85;21694;-63
2022/11/01 05:03:06;;;;;;;11.68;3.17;;;;;;;2.15;65.20;101206.28;1666189;85;21055;-63
2022/11/01 05:05:33;;;;;;;8.83;3.60;;;;;;;2.13;65.36;101205.49;1666684;84;21032;-63
2022/11/01 05:08:05;;;;;;;9.45;3.60;;;;;;;2.14;65.39;101205.91;1669822;85;21092;-62
2022/11/01 05:10:33;;;;;;;9.30;3.05;;;;;;;2.13;65.44;101209.39;1669341;85;21141;-63
2022/11/01 05:13:01;;;;;;;10.35;4.60;;;;;;;2.16;65.48;101210.59;1669294;85;21555;-62
2022/11/01 05:15:28;;;;;;;8.30;3.52;;;;;;;2.16;65.58;101211.89;1669060;85;21091;-63
2022/11/01 05:17:54;;;;;;;14.05;7.60;;;;;;;2.18;65.65;101215.28;1669125;85;21104;-63
2022/11/01 05:20:21;;;;;;;9.95;3.90;;;;;;;2.20;65.85;101210.88;1670427;85;21152;-62
2022/11/01 05:22:49;;;;;;;7.90;2.77;;;;;;;2.20;66.19;101213.48;1672760;85;21068;-62
2022/11/01 05:25:17;;;;;;;7.55;2.87;;;;;;;2.23;66.36;101213.39;1669206;85;21021;-64
2022/11/01 05:27:44;;;;;;;9.03;3.33;;;;;;;2.29;66.47;101218.39;1670921;84;21191;-62
2022/11/01 05:30:12;;;;;;;6.85;2.40;;;;;;;2.38;66.34;101210.29;1682244;84;21117;-64
2022/11/01 05:32:39;;;;;;;9.83;3.70;;;;;;;2.45;66.28;101204.45;1682388;84;21070;-63
2022/11/01 05:35:08;;;;;;;8.63;2.52;;;;;;;2.48;66.21;101205.64;1681226;84;21242;-62
2022/11/01 05:37:36;;;;;;;7.80;3.12;;;;;;;2.47;66.12;101206.99;1636369;86;21089;-62
2022/11/01 05:40:04;;;;;;;7.25;3.30;;;;;;;2.51;66.08;101215.10;1659029;84;21075;-63
2022/11/01 05:42:31;;;;;;;7.00;2.87;;;;;;;2.52;66.09;101208.56;1658969;84;21549;-63
2022/11/01 05:44:57;;;;;;;7.33;3.08;;;;;;;2.58;65.91;101215.29;1663501;84;21005;-63
2022/11/01 05:47:24;;;;;;;10.70;2.42;;;;;;;2.68;65.44;101211.48;1691251;83;21758;-65
2022/11/01 05:49:52;;;;;;;5.83;2.85;;;;;;;2.73;65.27;101217.36;1694654;83;20930;-63
2022/11/01 05:52:19;;;;;;;13.00;6.67;;;;;;;2.75;65.08;101218.16;1693752;84;21602;-64
2022/11/01 05:54:46;;;;;;;6.33;2.87;;;;;;;2.76;65.05;101217.73;1692277;84;21074;-63
2022/11/01 05:57:13;;;;;;;7.45;2.52;;;;;;;2.74;65.00;101219.08;1663088;84;21620;-63
2022/11/01 05:59:39;;;;;;;13.10;4.92;;;;;;;2.72;65.06;101214.39;1682700;84;22025;-63
2022/11/01 06:02:06;;;;;;;14.20;3.67;;;;;;;2.78;65.03;101215.45;1689423;84;21628;-63
2022/11/01 06:04:33;;;;;;;6.47;3.15;;;;;;;2.90;64.89;101221.98;1662931;84;21075;-63
2022/11/01 06:07:02;;;;;;;9.03;3.05;;;;;;;2.99;64.68;101223.41;1682378;84;21033;-62
2022/11/01 06:09:29;;;;;;;8.40;3.00;;;;;;;3.03;64.69;101224.18;1690406;83;21079;-63
2022/11/01 06:11:56;;;;;;;7.85;3.08;;;;;;;3.07;64.62;101221.85;1680437;83;21256;-62
2022/11/01 06:14:23;;;;;;;13.48;4.00;;;;;;;3.10;64.53;101221.29;1683361;83;21167;-63
2022/11/01 06:16:49;;;;;;;8.50;2.92;;;;;;;3.14;64.42;101220.30;1687644;83;21613;-62
2022/11/01 06:19:16;;;;;;;12.58;6.78;;;;;;;3.19;64.33;101214.06;1700780;83;21082;-62
2022/11/01 06:21:44;;;;;;;9.20;3.40;;;;;;;3.28;64.17;101218.48;1712083;83;21126;-64
2022/11/01 06:24:12;;;;;;;8.15;3.33;;;;;;;3.40;63.89;101222.39;1689583;83;21220;-62
2022/11/01 06:26:38;;;;;;;9.45;2.92;;;;;;;3.48;63.82;101223.39;1638649;85;21075;-62
2022/11/01 06:29:06;;;;;;;11.33;3.05;;;;;;;3.56;63.61;101216.16;1644058;86;21111;-62
2022/11/01 06:31:32;;;;;;;14.15;6.08;;;;;;;3.63;63.43;101221.55;1695351;84;21039;-63
2022/11/01 06:34:00;;;;;;;8.15;3.25;;;;;;;3.67;63.33;101221.81;1685113;84;21011;-62
2022/11/01 06:36:26;;;;;;;6.87;2.55;;;;;;;3.74;63.10;101222.44;1690470;83;21250;-63
2022/11/01 06:38:54;;;;;;;9.15;3.02;;;;;;;3.78;62.98;101222.70;1694191;83;21064;-64
2022/11/01 06:41:21;;;;;;;9.55;3.60;;;;;;;3.89;62.79;101224.44;1688963;83;21108;-63
2022/11/01 06:43:49;;;;;;;10.43;5.45;;;;;;;4.05;62.59;101217.33;1691867;83;21118;-63
2022/11/01 06:46:15;;;;;;;7.42;2.75;;;;;;;4.16;62.18;101221.67;1686854;83;21107;-65
2022/11/01 06:48:42;;;;;;;13.93;6.20;;;;;;;4.24;61.97;101222.21;1687649;83;22124;-63
2022/11/01 06:51:09;;;;;;;13.20;6.60;;;;;;;4.34;61.69;101220.52;1687180;83;22429;-63
2022/11/01 06:53:36;;;;;;;12.05;6.22;;;;;;;4.42;61.62;101224.97;1693032;83;21096;-63
2022/11/01 06:56:03;;;;;;;8.33;3.35;;;;;;;4.49;61.60;101222.96;1694092;84;21826;-61
2022/11/01 06:58:30;;;;;;;11.78;3.58;;;;;;;4.52;61.41;101226.28;1681884;84;21117;-61
2022/11/01 07:00:56;;;;;;;8.28;3.40;;;;;;;4.57;61.54;101223.06;1693725;84;21293;-61
2022/11/01 07:03:22;;;;;;;13.32;6.92;;;;;;;4.65;61.28;101229.24;1693326;84;21103;-60
2022/11/01 07:05:49;;;;;;;7.22;2.62;;;;;;;4.76;61.09;101224.44;1694964;84;21040;-62
2022/11/01 07:08:16;;;;;;;7.03;3.40;;;;;;;4.87;60.86;101225.27;1694174;84;21154;-61
2022/11/01 07:10:43;;;;;;;10.93;6.40;;;;;;;4.93;60.39;101217.66;1693348;84;21084;-61
2022/11/01 07:13:11;;;;;;;7.20;3.75;;;;;;;4.97;60.07;101221.81;1688001;83;21295;-62
2022/11/01 07:15:39;;;;;;;12.20;4.00;;;;;;;4.99;59.84;101220.84;1689643;83;21438;-63
2022/11/01 07:18:07;;;;;;;15.25;6.37;;;;;;;5.01;59.76;101219.48;1696972;83;22259;-63
2022/11/01 07:20:40;;;;;;;30.92;5.03;;;;;;;5.01;59.91;101221.62;1686875;84;21371;-63
2022/11/01 07:23:15;;;;;;;15.20;7.05;;;;;;;5.07;60.15;101217.05;1695702;83;21615;-63
2022/11/01 07:25:42;;;;;;;9.40;4.47;;;;;;;5.09;60.08;101212.14;1689608;83;21295;-63
2022/11/01 07:28:09;;;;;;;7.67;3.58;;;;;;;5.21;60.09;101219.87;1685514;83;21586;-63
2022/11/01 07:30:36;;;;;;;10.72;4.20;;;;;;;5.38;59.73;101218.69;1659960;85;21082;-62
2022/11/01 07:33:03;;;;;;;8.43;3.10;;;;;;;5.50;59.01;101222.51;1657952;85;21171;-63
2022/11/01 07:35:30;;;;;;;11.60;6.50;;;;;;;5.56;58.57;101224.85;1694622;83;21123;-62
2022/11/01 07:37:57;;;;;;;11.70;6.33;;;;;;;5.62;58.47;101221.10;1655705;85;21259;-63
2022/11/01 07:40:26;;;;;;;10.85;6.33;;;;;;;5.70;58.75;101216.37;1623335;87;21063;-62
2022/11/01 07:42:58;;;;;;;11.83;4.30;;;;;;;5.79;58.24;101219.02;1660279;85;21142;-62
2022/11/01 07:45:27;;;;;;;9.85;5.85;;;;;;;5.86;58.25;101218.27;1694387;83;21161;-62
2022/11/01 07:48:02;;;;;;;13.35;6.00;;;;;;;5.92;57.74;101215.38;1694611;83;21522;-63
2022/11/01 07:50:30;;;;;;;12.37;3.62;;;;;;;5.99;57.98;101212.05;1687096;83;22065;-63
2022/11/01 07:53:13;;;;;;;10.58;6.17;;;;;;;6.08;57.86;101207.20;1691296;83;21103;-62
2022/11/01 07:57:09;;;;;;;11.60;5.47;;;;;;;6.20;57.72;101201.84;1798474;79;22588;-60
2022/11/01 07:59:36;;;;;;;13.35;6.42;;;;;;;6.43;56.88;101201.20;1761168;81;21000;-60
2022/11/01 08:02:03;;;;;;;9.48;4.62;;;;;;;6.51;56.25;101202.97;1770922;81;21102;-61
2022/11/01 08:04:31;;;;;;;10.35;6.60;;;;;;;6.59;56.17;101207.36;1754906;81;21118;-61
2022/11/01 08:06:59;;;;;;;7.90;3.92;;;;;;;6.65;55.94;101204.41;1761661;81;21570;-61
2022/11/01 08:09:26;;;;;;;11.43;5.95;;;;;;;6.71;55.79;101207.20;1766972;81;21012;-60
2022/11/01 08:11:52;;;;;;;7.58;2.92;;;;;;;6.75;56.05;101215.73;1766738;81;20951;-61
2022/11/01 08:14:20;;;;;;;11.65;6.03;;;;;;;6.89;55.78;101206.70;1759023;79;21236;-62
2022/11/01 08:16:54;;;;;;;11.65;5.97;;;;;;;7.07;55.40;101198.38;1763937;81;21015;-59
2022/11/01 08:19:18;;;;;;;9.98;5.17;;;;;;;7.22;54.88;101199.34;1759498;81;21055;-60
2022/11/01 08:21:45;;;;;;;9.95;4.83;;;;;;;7.32;54.90;101190.54;1756669;81;21034;-64
2022/11/01 08:24:12;;;;;;;8.58;4.78;;;;;;;7.44;54.39;101185.47;1763094;81;21110;-64
2022/11/01 08:26:39;;;;;;;12.10;4.97;;;;;;;7.59;53.74;101189.51;1761483;81;21214;-61
2022/11/01 08:29:06;;;;;;;8.45;2.70;;;;;;;7.72;53.58;101177.42;1759321;81;21486;-62
2022/11/01 08:31:32;;;;;;;9.35;5.10;;;;;;;7.83;53.02;101175.98;1766702;81;21541;-61
2022/11/01 08:33:59;;;;;;;12.70;4.95;;;;;;;7.89;53.01;101177.80;1758787;79;21053;-61
2022/11/01 08:36:26;;;;;;;8.33;4.60;;;;;;;7.98;52.83;101181.66;1762609;81;21035;-62
2022/11/01 08:38:52;;;;;;;9.05;5.25;;;;;;;8.07;52.56;101174.61;1751906;80;21293;-62
2022/11/01 08:41:19;;;;;;;10.03;4.72;;;;;;;8.14;52.07;101177.73;1758803;80;21050;-62
2022/11/01 08:43:45;;;;;;;11.68;5.33;;;;;;;8.19;51.66;101186.17;1763776;80;21027;-62
2022/11/01 08:46:12;;;;;;;8.78;5.08;;;;;;;8.25;52.16;101181.87;1762744;81;21066;-62
2022/11/01 08:48:39;;;;;;;9.08;5.25;;;;;;;8.34;51.65;101182.66;1763154;79;21110;-62
2022/11/01 08:51:06;;;;;;;10.85;4.70;;;;;;;8.43;51.46;101174.75;1763146;81;21133;-62
2022/11/01 08:53:33;;;;;;;8.90;4.37;;;;;;;8.50;51.46;101171.30;1766953;80;21063;-62
2022/11/01 08:56:00;;;;;;;9.03;4.55;;;;;;;8.58;51.17;101167.77;1756727;81;21143;-62
2022/11/01 08:58:27;;;;;;;7.83;4.28;;;;;;;8.66;50.58;101162.91;1754273;81;21113;-62
2022/11/01 09:00:53;;;;;;;10.38;4.30;;;;;;;8.73;50.67;101160.28;1752085;81;21044;-62
2022/11/01 09:03:20;;;;;;;10.58;4.72;;;;;;;8.80;50.91;101164.70;1752974;81;21200;-62
2022/11/01 09:05:47;;;;;;;7.65;4.20;;;;;;;8.84;50.53;101160.97;1739891;81;21092;-62
2022/11/01 09:08:14;;;;;;;8.85;4.28;;;;;;;8.87;49.82;101161.24;1752014;81;21115;-62
2022/11/01 09:10:41;;;;;;;9.43;4.55;;;;;;;8.90;49.64;101159.75;1753314;80;21064;-61
2022/11/01 09:13:08;;;;;;;9.43;4.70;;;;;;;8.94;50.20;101163.86;1754683;81;21504;-62
2022/11/01 09:15:36;;;;;;;9.43;4.90;;;;;;;9.00;50.34;101150.85;1751774;81;21534;-62
2022/11/01 09:18:06;;;;;;;9.03;5.22;;;;;;;9.02;50.19;101156.36;1758007;81;20992;-62
2022/11/01 09:20:33;;;;;;;8.95;5.12;;;;;;;9.05;49.96;101155.34;1752318;80;21072;-62
2022/11/01 09:23:01;;;;;;;9.45;3.92;;;;;;;9.10;49.97;101156.74;1749016;81;21067;-61
2022/11/01 09:25:28;;;;;;;8.55;4.50;;;;;;;9.20;50.30;101156.19;1673701;84;21570;-61
2022/11/01 09:27:56;;;;;;;9.93;4.50;;;;;;;9.34;49.82;101155.33;1687468;83;21844;-61
2022/11/01 09:30:24;;;;;;;11.35;4.05;;;;;;;9.44;49.68;101148.55;1743627;80;21118;-62
2022/11/01 09:32:50;;;;;;;9.65;4.22;;;;;;;9.52;48.06;101142.83;1732497;81;21044;-61
2022/11/01 09:35:17;;;;;;;8.00;2.80;;;;;;;9.60;48.03;101145.78;1756529;81;21106;-61
2022/11/01 09:37:44;;;;;;;11.03;3.25;;;;;;;9.67;45.91;101141.84;1758249;81;21607;-61
2022/11/01 09:40:13;;;;;;;9.78;3.80;;;;;;;9.75;45.97;101140.02;1735060;81;22127;-61
2022/11/01 09:42:42;;;;;;;8.68;3.80;;;;;;;9.84;46.35;101137.64;1762790;81;21056;-61
2022/11/01 09:45:19;;;;;;;10.35;4.90;;;;;;;9.90;46.33;101140.81;1745958;81;21064;-61
2022/11/01 09:47:49;;;;;;;8.28;3.65;;;;;;;9.96;46.57;101133.85;1754170;81;20988;-62
2022/11/01 09:50:28;;;;;;;9.55;3.40;;;;;;;9.96;45.51;101130.73;1744988;80;21503;-61
2022/11/01 09:52:55;;;;;;;7.17;3.75;;;;;;;9.99;44.68;101130.55;1747423;80;21148;-61
2022/11/01 09:56:00;;;;;;;8.93;3.55;;;;;;;10.05;43.84;101137.17;1738452;80;21099;-61
2022/11/01 09:59:00;;;;;;;8.15;3.90;;;;;;;10.09;44.43;101132.58;1748462;81;21091;-60
2022/11/01 10:01:47;;;;;;;7.80;3.65;;;;;;;10.16;44.59;101131.22;1751356;81;21039;-60
2022/11/01 10:04:53;;;;;;;10.50;3.65;;;;;;;10.22;43.65;101125.08;1744218;81;21063;-60
2022/11/01 10:07:52;;;;;;;9.40;3.70;;;;;;;10.27;43.51;101123.47;1737736;80;21330;-60
2022/11/01 10:10:40;;;;;;;9.80;3.85;;;;;;;10.31;43.86;101120.16;1734035;80;21510;-61
2022/11/01 10:13:40;;;;;;;12.00;4.15;;;;;;;10.38;43.33;101113.56;1733614;81;21090;-60
2022/11/01 10:16:37;;;;;;;9.98;3.85;;;;;;;10.44;42.83;101117.10;1732843;81;21507;-61
2022/11/01 10:19:16;;;;;;;10.55;4.12;;;;;;;10.47;42.36;101114.72;1729653;80;21554;-61
2022/11/01 10:22:00;;;;;;;9.20;3.98;;;;;;;10.51;42.44;101106.52;1732235;81;21232;-61
2022/11/01 10:24:37;;;;;;;6.65;3.50;;;;;;;10.59;41.50;101102.89;1737329;80;21091;-65
2022/11/01 10:27:12;;;;;;;9.85;3.50;;;;;;;10.65;41.57;101102.10;1756766;81;21550;-61
2022/11/01 10:29:59;;;;;;;14.15;4.42;;;;;;;10.71;41.44;101089.84;1752168;81;21103;-61
2022/11/01 10:32:39;;;;;;;12.60;4.05;;;;;;;10.77;41.34;101092.86;1746084;81;21116;-62
2022/11/01 10:35:17;;;;;;;8.10;4.00;;;;;;;10.83;42.03;101079.77;1750192;81;21235;-61
2022/11/01 10:38:15;;;;;;;8.00;3.65;;;;;;;10.90;41.83;101076.23;1754301;81;21007;-61
2022/11/01 10:40:50;;;;;;;11.65;3.80;;;;;;;10.96;41.79;101077.95;1750374;80;21099;-62
2022/11/01 10:43:19;;;;;;;11.90;4.80;;;;;;;11.01;41.75;101071.51;1754781;81;21531;-61
2022/11/01 10:45:46;;;;;;;10.48;4.20;;;;;;;11.04;41.32;101069.98;1750680;81;21048;-61
2022/11/01 10:48:27;;;;;;;11.90;3.85;;;;;;;11.07;41.85;101067.97;1753256;81;21275;-61
2022/11/01 10:50:54;;;;;;;9.55;4.03;;;;;;;11.17;41.85;101056.30;1751676;80;21545;-62
2022/11/01 10:54:42;;;;;;;9.78;4.72;;;;;;;11.23;42.72;101055.88;1797410;78;22598;-61
2022/11/01 10:57:18;;;;;;;8.65;3.67;;;;;;;11.48;42.22;101064.61;1771048;80;21030;-61
2022/11/01 10:59:46;;;;;;;;;;;;;;;11.58;40.58;101055.07;1749791;80;21142;-61
2022/11/01 11:02:26;;;;;;;8.35;3.05;;;;;;;11.66;40.05;101052.72;1785532;80;20100;-61
2022/11/01 11:04:53;;;;;;;8.43;3.90;;;;;;;11.74;39.74;101050.84;1767039;80;21008;-60
2022/11/01 11:07:22;;;;;;;8.08;3.62;;;;;;;11.83;39.83;101054.58;1759149;80;21075;-61
2022/11/01 11:09:49;;;;;;;9.20;3.77;;;;;;;11.80;39.88;101051.71;1770383;80;21085;-61
2022/11/01 11:12:20;;;;;;;8.98;3.90;;;;;;;11.82;39.67;101046.33;1766859;80;21125;-61
2022/11/01 11:14:52;;;;;;;9.38;3.77;;;;;;;11.86;39.39;101047.77;1762554;80;21098;-61
2022/11/01 11:17:38;;;;;;;8.90;3.37;;;;;;;11.88;39.52;101039.25;1756451;81;21015;-61
2022/11/01 11:20:07;;;;;;;10.48;3.45;;;;;;;11.91;39.44;101040.37;1764586;80;21099;-61
2022/11/01 11:22:41;;;;;;;7.25;3.22;;;;;;;11.99;39.60;101042.45;1757884;80;21602;-61
2022/11/01 11:25:20;;;;;;;12.33;3.17;;;;;;;12.08;39.88;101041.25;1764430;80;21211;-61
2022/11/01 11:27:51;;;;;;;11.70;3.33;;;;;;;12.15;39.52;101049.55;1741351;81;21103;-61
2022/11/01 11:30:28;;;;;;;8.38;3.02;;;;;;;12.21;38.88;101044.30;1768972;80;21036;-61
2022/11/01 11:32:57;;;;;;;8.93;3.12;;;;;;;12.23;37.97;101046.33;1762317;80;21082;-62
2022/11/01 11:35:23;;;;;;;7.05;3.45;;;;;;;12.23;37.57;101049.80;1766253;80;21603;-62
2022/11/01 11:37:58;;;;;;;7.83;2.77;;;;;;;12.25;37.73;101052.33;1762588;80;22256;-61
2022/11/01 11:40:27;;;;;;;5.92;2.85;;;;;;;12.26;37.66;101058.80;1759750;80;21688;-61
2022/11/01 11:42:59;;;;;;;5.40;2.37;;;;;;;12.31;37.70;101057.63;1774623;80;21023;-61
2022/11/01 11:45:28;;;;;;;8.33;2.80;;;;;;;12.36;37.24;101054.98;1754505;80;21638;-62
2022/11/01 11:48:15;;;;;;;5.72;2.67;;;;;;;12.42;36.80;101054.53;1751972;80;21539;-61
2022/11/01 11:50:42;;;;;;;7.75;2.70;;;;;;;12.49;36.82;101055.35;1770417;80;21189;-59
2022/11/01 11:53:19;;;;;;;11.80;3.75;;;;;;;12.59;37.61;101056.31;1672799;82;21058;-60
2022/11/01 11:56:02;;;;;;;6.20;2.80;;;;;;;12.68;37.79;101055.61;1711874;83;21031;-60
2022/11/01 11:58:42;;;;;;;5.87;2.77;;;;;;;12.77;38.25;101058.83;1692455;84;21750;-61